Temp: 5.3°C   Baro: 1027.7mb
  Wind: 0.9mph   Dir: W (277°)
  Rain: 0.0mm (0.0mm/hr)
  Humidity: 88%

Historic data

Bath Spa Weather Station Historical Data
Daily Summary for November 28, 2022 Units:  Metric    English   Both
Daily Weekly Monthly Yearly Custom
  High: Low: Average:
Temperature: 10.7 °C 2.1 °C 6.6 °C
Dew Point: 8.4 °C 1.2 °C 5.2 °C
Humidity: 95% 81% 91%
Wind Speed: 9km/h 0km/h 2.1km/h
Wind Gust: 16.1km/h - -
Wind- - WSW
Pressure: 1015.8 hPa 1006.3 hPa -
Precipitation: 0.51 mm    
Historical Graphs
 
 
Tabular Data for November 28, 2022
Time Temperature Dew Point Pressure Wind Wind Speed Wind Gust Humidity Rainfall Rate (Hourly) solar
00:09 6.3 °C 5.4 °C 1008 hPa Calm     94% 0 mm 0 W/m2
00:14 6.2 °C 5.3 °C 1008 hPa West 2.6 km/h 3.2 km/h 94% 0 mm 0 W/m2
00:19 6.1 °C 5.2 °C 1008 hPa West 1.9 km/h 4.8 km/h 94% 0 mm 0 W/m2
00:24 6.1 °C 5.2 °C 1007.7 hPa West 2.1 km/h 4.8 km/h 94% 0 mm 0 W/m2
00:29 6.1 °C 5.2 °C 1007.7 hPa West 3.5 km/h 4.8 km/h 94% 0 mm 0 W/m2
00:34 6.1 °C 5.2 °C 1007.7 hPa West 2.1 km/h 4.8 km/h 94% 0 mm 0 W/m2
00:39 6.1 °C 5.2 °C 1007.7 hPa West 1.9 km/h 3.2 km/h 94% 0 mm 0 W/m2
00:44 6.2 °C 5.3 °C 1007.7 hPa West 1.9 km/h 4.8 km/h 94% 0 mm 0 W/m2
00:49 6.3 °C 5.4 °C 1007.7 hPa West 2.1 km/h 6.4 km/h 94% 0 mm 0 W/m2
00:54 6.4 °C 5.5 °C 1007.7 hPa West 1.6 km/h 4.8 km/h 94% 0 mm 0 W/m2
00:59 6.3 °C 5.4 °C 1007.7 hPa West 3.9 km/h 6.4 km/h 94% 0 mm 0 W/m2
01:03 6.3 °C 5.4 °C 1007.7 hPa NW 2.7 km/h 8 km/h 94% 0 mm 0 W/m2
01:09 6.3 °C 5.4 °C 1007.7 hPa North 0.3 km/h 6.4 km/h 94% 0 mm 0 W/m2
01:14 6.2 °C 5.3 °C 1007.3 hPa North 2.6 km/h 4.8 km/h 94% 0 mm 0 W/m2
01:19 6.1 °C 5.2 °C 1007.3 hPa North 2.4 km/h 6.4 km/h 94% 0 mm 0 W/m2
01:24 5.9 °C 5.1 °C 1007.3 hPa North 2.3 km/h 4.8 km/h 94% 0 mm 0 W/m2
01:29 5.8 °C 4.9 °C 1007.3 hPa North 3.2 km/h 6.4 km/h 94% 0.25 mm 0 W/m2
01:34 5.9 °C 5.1 °C 1007.3 hPa NNW 2.3 km/h 6.4 km/h 94% 0.25 mm 0 W/m2
01:39 5.9 °C 5 °C 1007.3 hPa NNW 1.8 km/h 6.4 km/h 94% 0.25 mm 0 W/m2
01:44 5.9 °C 5 °C 1007.3 hPa NNW 1.1 km/h 4.8 km/h 94% 0.25 mm 0 W/m2
01:49 5.9 °C 5 °C 1007.3 hPa NW 1.4 km/h 4.8 km/h 94% 0.25 mm 0 W/m2
01:54 6 °C 5.1 °C 1007.3 hPa NW 0.3 km/h 1.6 km/h 94% 0.25 mm 0 W/m2
01:59 5.9 °C 5 °C 1007.3 hPa NW 0.3 km/h 1.6 km/h 94% 0.25 mm 0 W/m2
02:04 5.8 °C 4.8 °C 1007.3 hPa Calm   1.6 km/h 94% 0.25 mm 0 W/m2
02:09 5.8 °C 4.8 °C 1007.3 hPa Calm     94% 0.25 mm 0 W/m2
02:14 5.6 °C 4.7 °C 1007.3 hPa SSW 0.3 km/h 3.2 km/h 94% 0.25 mm 0 W/m2
02:19 5.8 °C 4.9 °C 1007.3 hPa SW 0.8 km/h 6.4 km/h 94% 0.25 mm 0 W/m2
02:24 6.1 °C 5.2 °C 1007.3 hPa SSW 4.3 km/h 11.3 km/h 94% 0.25 mm 0 W/m2
02:29 6.5 °C 5.6 °C 1007.3 hPa SSW 3.2 km/h 9.7 km/h 94% 0 mm 0 W/m2
02:34 6.7 °C 5.8 °C 1007.3 hPa South 2.6 km/h 6.4 km/h 94% 0 mm 0 W/m2
02:39 6.8 °C 5.9 °C 1007.3 hPa South 4 km/h 8 km/h 94% 0 mm 0 W/m2
02:44 6.9 °C 6 °C 1007.3 hPa SSW 3.9 km/h 9.7 km/h 94% 0 mm 0 W/m2
02:49 7.1 °C 6.2 °C 1007.3 hPa SSW 6.9 km/h 11.3 km/h 94% 0 mm 0 W/m2
02:54 7.2 °C 6.3 °C 1007.3 hPa SSW 2.7 km/h 9.7 km/h 94% 0 mm 0 W/m2
02:59 7.3 °C 6.4 °C 1007.3 hPa SSW 5.8 km/h 12.9 km/h 94% 0 mm 0 W/m2
03:04 7.3 °C 6.4 °C 1007.3 hPa South 4.8 km/h 11.3 km/h 94% 0 mm 0 W/m2
03:09 7.3 °C 6.4 °C 1007.3 hPa SW 6.4 km/h 11.3 km/h 94% 0 mm 0 W/m2
03:14 7.4 °C 6.5 °C 1007.3 hPa SW 3.1 km/h 9.7 km/h 94% 0 mm 0 W/m2
03:19 7.4 °C 6.3 °C 1007 hPa SSW 1.3 km/h 4.8 km/h 93% 0 mm 0 W/m2
03:24 7.3 °C 6.2 °C 1007 hPa SSW 2.7 km/h 4.8 km/h 93% 0 mm 0 W/m2
03:29 7.3 °C 6.2 °C 1007 hPa SSW 2.4 km/h 6.4 km/h 93% 0 mm 0 W/m2
03:34 7.3 °C 6.2 °C 1007 hPa SSW 1 km/h 6.4 km/h 93% 0 mm 0 W/m2
03:39 7.2 °C 6.1 °C 1006.7 hPa Calm   1.6 km/h 93% 0 mm 0 W/m2
03:44 6.9 °C 5.8 °C 1006.7 hPa SSW 0.6 km/h 3.2 km/h 93% 0 mm 0 W/m2
03:49 6.6 °C 5.5 °C 1006.7 hPa Calm   3.2 km/h 93% 0 mm 0 W/m2
03:54 6.3 °C 5.3 °C 1006.7 hPa SSW 1.3 km/h 4.8 km/h 93% 0 mm 0 W/m2
03:59 6.1 °C 5 °C 1006.7 hPa SW 2.6 km/h 8 km/h 92.8% 0 mm 0 W/m2
04:04 6.1 °C 5.1 °C 1006.7 hPa SW 3.9 km/h 6.4 km/h 93% 0 mm 0 W/m2
04:09 5.9 °C 4.9 °C 1006.7 hPa SW 3.1 km/h 4.8 km/h 93% 0 mm 0 W/m2
04:14 5.9 °C 4.9 °C 1006.7 hPa SW 2.9 km/h 4.8 km/h 93% 0 mm 0 W/m2
04:19 5.8 °C 4.8 °C 1006.7 hPa SW 1.4 km/h 3.2 km/h 93% 0 mm 0 W/m2
04:24 5.7 °C 4.7 °C 1006.7 hPa SW 0.3 km/h 3.2 km/h 93% 0 mm 0 W/m2
04:29 5.7 °C 4.7 °C 1006.7 hPa SW 0.6 km/h 1.6 km/h 93% 0 mm 0 W/m2
04:34 5.7 °C 4.7 °C 1006.7 hPa SW 1.9 km/h 4.8 km/h 93% 0 mm 0 W/m2
04:39 5.6 °C 4.6 °C 1006.7 hPa SW 2.1 km/h 4.8 km/h 93% 0 mm 0 W/m2
04:44 6 °C 5 °C 1006.7 hPa SW 4 km/h 8 km/h 93% 0 mm 0 W/m2
04:49 6.4 °C 5.4 °C 1006.7 hPa SW 3.9 km/h 12.9 km/h 93% 0 mm 0 W/m2
04:54 6.7 °C 5.6 °C 1006.7 hPa SSW 3.9 km/h 12.9 km/h 93% 0 mm 0 W/m2
04:59 6.7 °C 5.6 °C 1006.7 hPa SSW 2.1 km/h 6.4 km/h 93% 0 mm 0 W/m2
05:04 6.8 °C 5.7 °C 1006.3 hPa SSW 3.1 km/h 11.3 km/h 93% 0 mm 0 W/m2
05:09 6.8 °C 5.7 °C 1006.7 hPa SSW 1.4 km/h 8 km/h 93% 0 mm 0 W/m2
05:14 6.5 °C 5.4 °C 1006.7 hPa SSW 1.8 km/h 4.8 km/h 93% 0 mm 0 W/m2
05:19 6.3 °C 5.3 °C 1006.7 hPa SSW 2.9 km/h 4.8 km/h 93% 0 mm 0 W/m2
05:24 6.2 °C 5.2 °C 1006.7 hPa SSW 2.6 km/h 4.8 km/h 93% 0 mm 0 W/m2
05:29 5.9 °C 4.9 °C 1006.7 hPa SSW 2.3 km/h 4.8 km/h 93% 0 mm 0 W/m2
05:34 5.8 °C 4.8 °C 1006.7 hPa SSW 2.1 km/h 4.8 km/h 93% 0 mm 0 W/m2
05:39 5.7 °C 4.7 °C 1006.7 hPa SSW 2.6 km/h 3.2 km/h 93% 0 mm 0 W/m2
05:44 5.7 °C 4.7 °C 1006.7 hPa SSW 4.3 km/h 4.8 km/h 93% 0 mm 0 W/m2
05:49 5.6 °C 4.6 °C 1006.7 hPa SSW 3.2 km/h 6.4 km/h 93% 0 mm 0 W/m2
05:54 5.6 °C 4.6 °C 1006.3 hPa SSW 4.3 km/h 4.8 km/h 93% 0 mm 0 W/m2
05:59 5.4 °C 4.4 °C 1006.7 hPa SSW 2.9 km/h 4.8 km/h 93% 0 mm 0 W/m2
06:04 5.3 °C 4.3 °C 1006.7 hPa SSW 2.6 km/h 4.8 km/h 93% 0 mm 0 W/m2
06:09 5.3 °C 4.3 °C 1006.7 hPa SSW 3.2 km/h 4.8 km/h 93% 0 mm 0 W/m2
06:14 5.2 °C 4.2 °C 1006.7 hPa SW 3.9 km/h 6.4 km/h 93% 0 mm 0 W/m2
06:19 5.2 °C 4.2 °C 1006.7 hPa SW 1.1 km/h 6.4 km/h 93% 0 mm 0 W/m2
06:24 5.2 °C 4.2 °C 1006.7 hPa SW 1.1 km/h 3.2 km/h 93% 0 mm 0 W/m2
06:29 5.2 °C 4.2 °C 1006.7 hPa SW 1.3 km/h 3.2 km/h 93% 0 mm 0 W/m2
06:34 5.1 °C 4.1 °C 1006.7 hPa SW 0.3 km/h 3.2 km/h 93% 0 mm 0 W/m2
06:39 4.9 °C 3.9 °C 1006.7 hPa SW 1.6 km/h 4.8 km/h 93% 0 mm 0 W/m2
06:44 4.8 °C 3.8 °C 1006.7 hPa SW 1.4 km/h 4.8 km/h 93% 0 mm 0 W/m2
06:49 4.8 °C 3.8 °C 1006.7 hPa WSW 4.5 km/h 6.4 km/h 93% 0 mm 0 W/m2
06:54 5 °C 4.1 °C 1006.7 hPa West 2.4 km/h 6.4 km/h 94% 0 mm 0 W/m2
06:59 5.1 °C 4.2 °C 1006.7 hPa West 1.9 km/h 6.4 km/h 94% 0 mm 0 W/m2
07:04 4.9 °C 4.1 °C 1006.7 hPa West 2.9 km/h 6.4 km/h 94% 0 mm 0 W/m2
07:09 5 °C 4.1 °C 1006.7 hPa West 1 km/h 6.4 km/h 94% 0 mm 0 W/m2
07:14 5.3 °C 4.4 °C 1006.7 hPa West 1.3 km/h 3.2 km/h 94% 0 mm 0 W/m2
07:19 5.2 °C 4.2 °C 1006.7 hPa West 0.8 km/h 3.2 km/h 94% 0 mm 0 W/m2
07:24 4.9 °C 4.1 °C 1006.7 hPa West 2.4 km/h 4.8 km/h 94% 0 mm 0 W/m2
07:29 5.1 °C 4.2 °C 1006.7 hPa WNW 1.4 km/h 6.4 km/h 94% 0 mm 0 W/m2
07:34 5.5 °C 4.6 °C 1006.7 hPa NW 1.9 km/h 6.4 km/h 94% 0 mm 0 W/m2
07:39 5.9 °C 5 °C 1007 hPa NW 1.8 km/h 4.8 km/h 94% 0 mm 0 W/m2
07:44 5.4 °C 4.5 °C 1007 hPa NW 2.3 km/h 4.8 km/h 94% 0 mm 0 W/m2
07:49 5.2 °C 4.3 °C 1007 hPa West 1 km/h 4.8 km/h 94% 0 mm 0 W/m2
07:54 5 °C 4.1 °C 1007 hPa West 1 km/h 3.2 km/h 94% 0 mm 0 W/m2
07:59 5.1 °C 4.2 °C 1007 hPa West 2.1 km/h 4.8 km/h 94% 0 mm 7 W/m2
08:04 5.3 °C 4.4 °C 1007 hPa West 1.4 km/h 3.2 km/h 94% 0 mm 11 W/m2
08:08 5.4 °C 4.6 °C 1007.3 hPa Calm   1.6 km/h 94% 0 mm 14 W/m2
08:14 5.6 °C 4.7 °C 1007.3 hPa West 1.9 km/h 3.2 km/h 94% 0 mm 14 W/m2
08:19 5.3 °C 4.4 °C 1007.3 hPa West 0.6 km/h 3.2 km/h 94% 0 mm 14 W/m2
08:24 5.3 °C 4.4 °C 1007.3 hPa West 0.8 km/h 1.6 km/h 94% 0 mm 16 W/m2
08:29 5.5 °C 4.6 °C 1007.3 hPa West 0.6 km/h 3.2 km/h 94% 0 mm 21 W/m2
08:34 5.5 °C 4.6 °C 1007.3 hPa West 0.6 km/h 3.2 km/h 94% 0.25 mm 40 W/m2
08:39 5.6 °C 4.7 °C 1007.3 hPa West 1.6 km/h 3.2 km/h 94% 0.25 mm 56 W/m2
08:44 5.6 °C 4.7 °C 1007.3 hPa West 1.4 km/h 4.8 km/h 94% 0.25 mm 60 W/m2
08:49 5.7 °C 4.8 °C 1007.3 hPa Calm   3.2 km/h 94% 0.25 mm 62 W/m2
08:54 5.8 °C 5 °C 1007.3 hPa Calm   1.6 km/h 94.4% 0.25 mm 58 W/m2
08:59 6 °C 5.3 °C 1007.7 hPa Calm     95% 0.25 mm 47 W/m2
09:04 6.2 °C 5.5 °C 1007.7 hPa West 0.3 km/h 1.6 km/h 95% 0.25 mm 47 W/m2
09:09 6.7 °C 5.9 °C 1007.3 hPa Calm     95% 0.25 mm 42 W/m2
09:14 6.9 °C 6.2 °C 1007.3 hPa Calm     95% 0.25 mm 35 W/m2
09:19 7 °C 6.3 °C 1007.3 hPa Calm     95% 0.25 mm 32 W/m2
09:24 6.9 °C 6.2 °C 1007.3 hPa Calm     95% 0.25 mm 33 W/m2
09:29 6.7 °C 5.9 °C 1007.3 hPa Calm     95% 0.25 mm 37 W/m2
09:34 6.4 °C 5.7 °C 1007.3 hPa Calm     95% 0 mm 39 W/m2
09:39 6.4 °C 5.7 °C 1007.7 hPa Calm     95% 0 mm 46 W/m2
09:44 6.6 °C 5.9 °C 1007.7 hPa Calm     95% 0 mm 65 W/m2
09:49 6.9 °C 6.2 °C 1007.7 hPa Calm     95% 0 mm 77 W/m2
09:54 7.2 °C 6.5 °C 1007.7 hPa Calm     95% 0 mm 84 W/m2
09:59 7.4 °C 6.7 °C 1007.7 hPa Calm     95% 0 mm 93 W/m2
10:04 7.8 °C 7 °C 1007.7 hPa West 0.3 km/h 1.6 km/h 95% 0 mm 100 W/m2
10:09 7.9 °C 7.2 °C 1007.7 hPa West 2.3 km/h 6.4 km/h 95% 0 mm 109 W/m2
10:14 8.1 °C 7.3 °C 1007.7 hPa West 1.3 km/h 4.8 km/h 95% 0 mm 118 W/m2
10:19 8.2 °C 7.4 °C 1007.7 hPa West 1.8 km/h 4.8 km/h 95% 0 mm 125 W/m2
10:24 8.4 °C 7.6 °C 1007.7 hPa West 3.1 km/h 6.4 km/h 95% 0 mm 127 W/m2
10:29 8.4 °C 7.6 °C 1008 hPa West 3.2 km/h 6.4 km/h 95% 0 mm 121 W/m2
10:34 8.5 °C 7.7 °C 1008 hPa West 1.4 km/h 6.4 km/h 94.8% 0 mm 105 W/m2
10:39 8.8 °C 7.9 °C 1007.7 hPa West 1 km/h 4.8 km/h 94.2% 0 mm 144 W/m2
10:44 9.2 °C 8.3 °C 1008 hPa West 1.8 km/h 4.8 km/h 94% 0 mm 151 W/m2
10:49 9.3 °C 8.4 °C 1008 hPa WSW 3.2 km/h 8 km/h 94% 0 mm 158 W/m2
10:54 9.3 °C 8.4 °C 1008 hPa WSW 3.7 km/h 9.7 km/h 93.8% 0 mm 162 W/m2
10:59 9.4 °C 8.3 °C 1008 hPa SW 6.4 km/h 11.3 km/h 93% 0 mm 167 W/m2
11:04 9.4 °C 8.3 °C 1008 hPa SW 5.3 km/h 11.3 km/h 92.8% 0 mm 172 W/m2
11:09 9.4 °C 8.2 °C 1008 hPa WSW 6.3 km/h 14.5 km/h 92% 0 mm 178 W/m2
11:14 9.6 °C 8.2 °C 1008 hPa WSW 6 km/h 12.9 km/h 91% 0 mm 181 W/m2
11:19 9.6 °C 7.9 °C 1008 hPa WSW 7.2 km/h 14.5 km/h 90% 0 mm 183 W/m2
11:24 9.6 °C 7.9 °C 1008 hPa WSW 5.1 km/h 12.9 km/h 89.4% 0 mm 186 W/m2
11:29 9.7 °C 7.9 °C 1008 hPa SW 5.1 km/h 11.3 km/h 88.6% 0 mm 190 W/m2
11:34 9.9 °C 7.9 °C 1008 hPa WSW 4.5 km/h 9.7 km/h 87.8% 0 mm 193 W/m2
11:39 9.9 °C 7.8 °C 1008 hPa West 6.3 km/h 12.9 km/h 86.8% 0 mm 195 W/m2
11:44 9.9 °C 7.7 °C 1008 hPa WSW 7.2 km/h 11.3 km/h 86% 0 mm 197 W/m2
11:49 9.9 °C 7.6 °C 1008 hPa WSW 3.9 km/h 9.7 km/h 85.4% 0 mm 199 W/m2
11:54 10.1 °C 7.7 °C 1008 hPa West 7.6 km/h 11.3 km/h 85% 0 mm 200 W/m2
11:59 9.9 °C 7.4 °C 1008 hPa West 7.2 km/h 12.9 km/h 84.2% 0 mm 202 W/m2
12:04 10.1 °C 7.4 °C 1008 hPa West 5.1 km/h 11.3 km/h 84% 0 mm 206 W/m2
12:09 10 °C 7.4 °C 1008.4 hPa West 4.8 km/h 9.7 km/h 84% 0 mm 206 W/m2
12:14 10.1 °C 7.3 °C 1008.4 hPa WNW 6.4 km/h 9.7 km/h 83.6% 0 mm 209 W/m2
12:19 10.1 °C 7.3 °C 1008.4 hPa West 4.5 km/h 9.7 km/h 83% 0 mm 204 W/m2
12:23 10.1 °C 7.3 °C 1008.4 hPa West 4.8 km/h 9.7 km/h 83% 0 mm 204 W/m2
12:29 10.1 °C 7.3 °C 1008.4 hPa West 6.1 km/h 9.7 km/h 83% 0 mm 204 W/m2
12:34 10.2 °C 7.4 °C 1008.4 hPa West 5.1 km/h 9.7 km/h 83% 0 mm 209 W/m2
12:39 10.2 °C 7.3 °C 1008.4 hPa West 6.6 km/h 11.3 km/h 82.2% 0 mm 214 W/m2
12:44 10.2 °C 7.3 °C 1008.4 hPa West 7.1 km/h 11.3 km/h 82% 0 mm 223 W/m2
12:49 10.1 °C 7.2 °C 1008.7 hPa West 9 km/h 11.3 km/h 82% 0 mm 220 W/m2
12:54 10.2 °C 7.3 °C 1008.7 hPa West 7.2 km/h 14.5 km/h 82% 0 mm 241 W/m2
12:59 10.1 °C 7.2 °C 1008.7 hPa West 7.4 km/h 12.9 km/h 82% 0 mm 239 W/m2
13:04 10.3 °C 7.4 °C 1008.7 hPa WSW 6.6 km/h 11.3 km/h 82% 0 mm 230 W/m2
13:09 10.6 °C 7.5 °C 1008.7 hPa WSW 9 km/h 16.1 km/h 81.4% 0 mm 257 W/m2
13:14 10.4 °C 7.3 °C 1008.7 hPa WSW 8.4 km/h 12.9 km/h 81% 0 mm 279 W/m2
13:19 10.6 °C 7.4 °C 1008.7 hPa WSW 8 km/h 14.5 km/h 81% 0 mm 285 W/m2
13:24 10.6 °C 7.5 °C 1008.7 hPa WSW 6.6 km/h 14.5 km/h 81% 0 mm 229 W/m2
13:29 10.4 °C 7.3 °C 1008.7 hPa WSW 4.3 km/h 9.7 km/h 81% 0 mm 221 W/m2
13:34 10.3 °C 7.2 °C 1008.7 hPa WSW 6.4 km/h 11.3 km/h 81% 0 mm 116 W/m2
13:39 10.2 °C 7.2 °C 1009 hPa WSW 3.4 km/h 8 km/h 81.4% 0 mm 171 W/m2
13:44 10.3 °C 7.4 °C 1009 hPa WSW 0.8 km/h 6.4 km/h 82% 0 mm 190 W/m2
13:49 10.7 °C 7.7 °C 1009 hPa West 3.7 km/h 8 km/h 82% 0 mm 183 W/m2
13:54 10.7 °C 7.8 °C 1009 hPa West 2.4 km/h 6.4 km/h 82% 0 mm 178 W/m2
13:59 10.6 °C 7.7 °C 1009 hPa West 4.7 km/h 8 km/h 82% 0 mm 107 W/m2
14:04 10.4 °C 7.5 °C 1009 hPa West 6.3 km/h 12.9 km/h 82% 0 mm 171 W/m2
14:09 10.4 °C 7.5 °C 1009 hPa West 8.4 km/h 14.5 km/h 82% 0 mm 223 W/m2
14:14 10.3 °C 7.4 °C 1009 hPa WNW 6.8 km/h 12.9 km/h 82% 0 mm 162 W/m2
14:19 10.2 °C 7.3 °C 1009 hPa WNW 8.4 km/h 16.1 km/h 82% 0 mm 76 W/m2
14:24 10.2 °C 7.2 °C 1009 hPa WNW 7.2 km/h 11.3 km/h 82% 0 mm 46 W/m2
14:29 10.1 °C 7.2 °C 1009.4 hPa West 6.4 km/h 11.3 km/h 82.2% 0 mm 47 W/m2
14:34 9.9 °C 7.2 °C 1009.4 hPa West 2.9 km/h 9.7 km/h 83% 0 mm 58 W/m2
14:39 9.9 °C 7.2 °C 1009.4 hPa West 2.7 km/h 6.4 km/h 83% 0 mm 76 W/m2
14:44 10 °C 7.4 °C 1009.4 hPa West 3.2 km/h 8 km/h 84% 0 mm 72 W/m2
14:49 10.1 °C 7.5 °C 1009.4 hPa West 3.4 km/h 4.8 km/h 84% 0 mm 76 W/m2
14:54 10.2 °C 7.5 °C 1009.7 hPa West 4.7 km/h 8 km/h 83.4% 0 mm 72 W/m2
14:59 10.2 °C 7.4 °C 1009.7 hPa WSW 4.7 km/h 8 km/h 83% 0 mm 63 W/m2
15:04 10.3 °C 7.5 °C 1009.7 hPa WSW 2.4 km/h 6.4 km/h 83% 0 mm 58 W/m2
15:09 10.2 °C 7.4 °C 1009.7 hPa WSW 2.3 km/h 6.4 km/h 83% 0 mm 49 W/m2
15:14 10.3 °C 7.5 °C 1009.7 hPa WSW 4.7 km/h 8 km/h 83% 0 mm 37 W/m2
15:19 10.3 °C 7.4 °C 1010 hPa WSW 5.1 km/h 8 km/h 83% 0 mm 28 W/m2
15:24 10.1 °C 7.3 °C 1010 hPa WSW 2.9 km/h 8 km/h 82.6% 0 mm 32 W/m2
15:29 9.9 °C 7.1 °C 1010 hPa WSW 2.9 km/h 6.4 km/h 83% 0 mm 26 W/m2
15:34 9.8 °C 7.1 °C 1010 hPa WSW 2.1 km/h 6.4 km/h 83% 0 mm 37 W/m2
15:39 9.7 °C 7 °C 1010 hPa WSW 2.1 km/h 4.8 km/h 83% 0 mm 35 W/m2
15:44 9.7 °C 7 °C 1010 hPa WSW 1.4 km/h 4.8 km/h 83.2% 0 mm 18 W/m2
15:49 9.7 °C 7.1 °C 1010.4 hPa Calm   1.6 km/h 84% 0 mm 11 W/m2
15:54 9.6 °C 6.9 °C 1010.4 hPa Calm     84% 0 mm 9 W/m2
15:59 9.4 °C 6.8 °C 1010.4 hPa WSW 1.3 km/h 3.2 km/h 84% 0 mm 11 W/m2
16:04 9.3 °C 6.7 °C 1010.4 hPa WSW 2.9 km/h 3.2 km/h 84% 0 mm 7 W/m2
16:09 9.3 °C 6.7 °C 1010.4 hPa WSW 0.6 km/h 3.2 km/h 84% 0 mm 5 W/m2
16:14 9.2 °C 6.7 °C 1010.4 hPa WSW 0.6 km/h 1.6 km/h 84.8% 0 mm 0 W/m2
16:19 9.1 °C 6.7 °C 1010.7 hPa Calm     85% 0 mm 0 W/m2
16:24 8.8 °C 6.4 °C 1010.7 hPa WSW 0.3 km/h 1.6 km/h 85% 0 mm 0 W/m2
16:29 8.6 °C 6.3 °C 1010.7 hPa WSW 0.8 km/h 3.2 km/h 85.6% 0 mm 0 W/m2
16:34 8.4 °C 6.2 °C 1010.7 hPa WSW 2.6 km/h 4.8 km/h 86% 0 mm 0 W/m2
16:39 8.3 °C 6.1 °C 1010.7 hPa WSW 1.4 km/h 4.8 km/h 86% 0 mm 0 W/m2
16:44 8.3 °C 6.2 °C 1010.7 hPa WSW 1.9 km/h 3.2 km/h 86.6% 0 mm 0 W/m2
16:49 8.2 °C 6.2 °C 1010.7 hPa WSW 1.4 km/h 3.2 km/h 87% 0 mm 0 W/m2
16:54 8 °C 6 °C 1010.7 hPa WSW 1.8 km/h 3.2 km/h 87% 0 mm 0 W/m2
16:59 7.8 °C 5.9 °C 1010.7 hPa WSW 1.9 km/h 4.8 km/h 87.5% 0 mm 0 W/m2
17:04 7.7 °C 5.8 °C 1011.1 hPa WSW 2.6 km/h 4.8 km/h 88% 0 mm 0 W/m2
17:09 7.6 °C 5.7 °C 1011.1 hPa WSW 0.3 km/h 3.2 km/h 88% 0 mm 0 W/m2
17:14 7.6 °C 5.7 °C 1011.4 hPa WSW 0.3 km/h 1.6 km/h 88% 0 mm 0 W/m2
17:19 7.4 °C 5.5 °C 1011.4 hPa WSW 1.8 km/h 3.2 km/h 88% 0 mm 0 W/m2
17:24 7.3 °C 5.6 °C 1011.4 hPa WSW 0.8 km/h 3.2 km/h 89% 0 mm 0 W/m2
17:29 7.3 °C 5.6 °C 1011.4 hPa Calm   1.6 km/h 89% 0 mm 0 W/m2
17:34 6.9 °C 5.2 °C 1011.7 hPa WSW 1.1 km/h 3.2 km/h 89% 0 mm 0 W/m2
17:39 6.6 °C 4.9 °C 1011.7 hPa WSW 1 km/h 3.2 km/h 89% 0 mm 0 W/m2
17:44 6.6 °C 4.9 °C 1011.7 hPa WSW 1.8 km/h 3.2 km/h 89.2% 0 mm 0 W/m2
17:49 6.5 °C 4.9 °C 1011.7 hPa WSW 0.3 km/h 1.6 km/h 89.4% 0 mm 0 W/m2
17:54 6.4 °C 4.9 °C 1011.7 hPa WSW 0.3 km/h 1.6 km/h 90% 0 mm 0 W/m2
17:59 6.3 °C 4.8 °C 1012.1 hPa WSW 2.1 km/h 4.8 km/h 90% 0 mm 0 W/m2
18:04 6.3 °C 4.8 °C 1012.1 hPa WSW 2.4 km/h 4.8 km/h 90% 0 mm 0 W/m2
18:09 6.3 °C 4.8 °C 1012.1 hPa WSW 1.6 km/h 4.8 km/h 90% 0 mm 0 W/m2
18:14 6.3 °C 4.8 °C 1012.1 hPa WSW 1 km/h 3.2 km/h 90% 0 mm 0 W/m2
18:19 6.2 °C 4.8 °C 1012.4 hPa WSW 0.6 km/h 4.8 km/h 90.2% 0 mm 0 W/m2
18:24 6.2 °C 4.8 °C 1012.4 hPa Calm     91% 0 mm 0 W/m2
18:29 6.2 °C 4.7 °C 1012.4 hPa Calm     91% 0 mm 0 W/m2
18:34 5.9 °C 4.5 °C 1012.4 hPa Calm     91% 0 mm 0 W/m2
18:39 5.9 °C 4.5 °C 1012.8 hPa Calm     91% 0 mm 0 W/m2
18:44 5.9 °C 4.5 °C 1012.8 hPa Calm     91% 0 mm 0 W/m2
18:49 5.8 °C 4.4 °C 1012.8 hPa Calm     91% 0 mm 0 W/m2
18:54 5.7 °C 4.3 °C 1012.8 hPa Calm     91% 0 mm 0 W/m2
18:59 5.6 °C 4.2 °C 1012.8 hPa Calm     91% 0 mm 0 W/m2
19:04 5.5 °C 4.1 °C 1012.8 hPa Calm   1.6 km/h 91% 0 mm 0 W/m2
19:09 5.3 °C 4 °C 1012.8 hPa Calm     91% 0 mm 0 W/m2
19:14 5.3 °C 3.9 °C 1013.1 hPa Calm     91% 0 mm 0 W/m2
19:19 5.2 °C 3.9 °C 1013.1 hPa Calm   1.6 km/h 91.4% 0 mm 0 W/m2
19:24 4.9 °C 3.7 °C 1013.1 hPa WSW 0.3 km/h 1.6 km/h 91% 0 mm 0 W/m2
19:29 4.8 °C 3.6 °C 1013.1 hPa Calm     92% 0 mm 0 W/m2
19:34 4.7 °C 3.6 °C 1013.1 hPa WSW 0.3 km/h 3.2 km/h 92% 0 mm 0 W/m2
19:39 4.7 °C 3.5 °C 1013.4 hPa WSW 1.4 km/h 3.2 km/h 92% 0 mm 0 W/m2
19:44 4.7 °C 3.5 °C 1013.4 hPa WSW 0.6 km/h 3.2 km/h 92% 0 mm 0 W/m2
19:49 4.5 °C 3.3 °C 1013.4 hPa Calm   1.6 km/h 92% 0 mm 0 W/m2
19:54 4.5 °C 3.3 °C 1013.4 hPa WSW 0.3 km/h 1.6 km/h 92% 0 mm 0 W/m2
19:59 4.4 °C 3.2 °C 1013.4 hPa Calm   1.6 km/h 92% 0 mm 0 W/m2
20:04 4.4 °C 3.2 °C 1013.4 hPa Calm   1.6 km/h 92% 0 mm 0 W/m2
20:09 4.4 °C 3.2 °C 1013.4 hPa Calm     92% 0 mm 0 W/m2
20:14 4.4 °C 3.2 °C 1013.4 hPa WSW 2.3 km/h 3.2 km/h 92% 0 mm 0 W/m2
20:19 4.4 °C 3.2 °C 1013.4 hPa WSW 0.3 km/h 3.2 km/h 92% 0 mm 0 W/m2
20:24 4.2 °C 3 °C 1013.8 hPa Calm     92% 0 mm 0 W/m2
20:29 4.2 °C 3 °C 1013.8 hPa WSW 0.3 km/h 1.6 km/h 92% 0 mm 0 W/m2
20:34 4.1 °C 2.9 °C 1014.1 hPa WSW 1.1 km/h 3.2 km/h 92% 0 mm 0 W/m2
20:39 4.1 °C 2.8 °C 1014.1 hPa WSW 0.3 km/h 1.6 km/h 92% 0 mm 0 W/m2
20:44 3.9 °C 2.8 °C 1014.1 hPa Calm   1.6 km/h 92.6% 0 mm 0 W/m2
20:49 4 °C 3 °C 1014.4 hPa WSW 0.3 km/h 1.6 km/h 93% 0 mm 0 W/m2
20:54 3.9 °C 2.9 °C 1014.4 hPa Calm     93% 0 mm 0 W/m2
20:59 3.9 °C 2.9 °C 1014.4 hPa Calm     93% 0 mm 0 W/m2
21:04 3.8 °C 2.8 °C 1014.4 hPa Calm     93% 0 mm 0 W/m2
21:09 3.8 °C 2.8 °C 1014.4 hPa Calm     93% 0 mm 0 W/m2
21:14 3.8 °C 2.8 °C 1014.4 hPa Calm     93% 0 mm 0 W/m2
21:19 3.7 °C 2.7 °C 1014.4 hPa Calm     93% 0 mm 0 W/m2
21:24 3.6 °C 2.6 °C 1014.8 hPa Calm     93% 0 mm 0 W/m2
21:29 3.4 °C 2.4 °C 1014.8 hPa Calm     93% 0 mm 0 W/m2
21:34 3.3 °C 2.3 °C 1014.8 hPa Calm     93% 0 mm 0 W/m2
21:39 3.3 °C 2.3 °C 1014.8 hPa Calm     93% 0 mm 0 W/m2
21:44 3.3 °C 2.3 °C 1014.8 hPa Calm     93% 0 mm 0 W/m2
21:49 3.2 °C 2.2 °C 1014.8 hPa Calm     93% 0 mm 0 W/m2
21:54 3.2 °C 2.2 °C 1014.8 hPa Calm     93% 0 mm 0 W/m2
21:59 3.1 °C 2.1 °C 1014.8 hPa Calm     93% 0 mm 0 W/m2
22:04 3.1 °C 2.1 °C 1014.8 hPa Calm     93% 0 mm 0 W/m2
22:09 3.1 °C 2.1 °C 1014.8 hPa Calm     93% 0 mm 0 W/m2
22:14 2.9 °C 1.9 °C 1014.8 hPa Calm     93% 0 mm 0 W/m2
22:19 2.8 °C 1.8 °C 1014.8 hPa Calm     93% 0 mm 0 W/m2
22:24 2.8 °C 1.8 °C 1015.1 hPa Calm     93% 0 mm 0 W/m2
22:29 2.8 °C 1.8 °C 1015.1 hPa Calm     93% 0 mm 0 W/m2
22:34 2.8 °C 1.8 °C 1015.1 hPa Calm     93% 0 mm 0 W/m2
22:39 2.8 °C 1.8 °C 1015.1 hPa Calm     93% 0 mm 0 W/m2
22:44 2.7 °C 1.7 °C 1015.1 hPa Calm     93% 0 mm 0 W/m2
22:49 2.7 °C 1.7 °C 1015.1 hPa Calm     93% 0 mm 0 W/m2
22:54 2.6 °C 1.6 °C 1015.5 hPa Calm     93% 0 mm 0 W/m2
22:59 2.5 °C 1.5 °C 1015.5 hPa Calm     93% 0 mm 0 W/m2
23:04 2.4 °C 1.4 °C 1015.5 hPa Calm     93% 0 mm 0 W/m2
23:09 2.5 °C 1.5 °C 1015.5 hPa Calm     93% 0 mm 0 W/m2
23:14 2.5 °C 1.5 °C 1015.5 hPa Calm     93% 0 mm 0 W/m2
23:19 2.4 °C 1.4 °C 1015.5 hPa Calm     93% 0 mm 0 W/m2
23:24 2.4 °C 1.4 °C 1015.5 hPa Calm     93% 0 mm 0 W/m2
23:29 2.4 °C 1.4 °C 1015.5 hPa Calm     93.4% 0 mm 0 W/m2
23:34 2.3 °C 1.4 °C 1015.5 hPa Calm     94% 0 mm 0 W/m2
23:39 2.3 °C 1.4 °C 1015.8 hPa Calm     94% 0 mm 0 W/m2
23:44 2.2 °C 1.2 °C 1015.8 hPa Calm     93% 0 mm 0 W/m2
23:49 2.2 °C 1.2 °C 1015.8 hPa Calm     93% 0 mm 0 W/m2
23:54 2.2 °C 1.2 °C 1015.8 hPa Calm     93% 0 mm 0 W/m2
23:59 2.1 °C 1.2 °C 1015.8 hPa Calm     93.8% 0 mm 0 W/m2
Bath Spa Weather
Compliments of Weather Underground - 2 mb